sensor_id;sensor_type;location;lat;lon;timestamp;temperature;humidity
1301;DHT22;59099;48.806;9.160;2022-10-16T00:02:06;16.00;99.90
1301;DHT22;59099;48.806;9.160;2022-10-16T00:04:32;15.90;99.90
1301;DHT22;59099;48.806;9.160;2022-10-16T00:06:57;15.90;99.90
1301;DHT22;59099;48.806;9.160;2022-10-16T00:09:23;15.90;99.90
1301;DHT22;59099;48.806;9.160;2022-10-16T00:11:49;15.90;99.90
1301;DHT22;59099;48.806;9.160;2022-10-16T00:14:15;16.00;99.90
1301;DHT22;59099;48.806;9.160;2022-10-16T00:16:42;15.90;99.90
1301;DHT22;59099;48.806;9.160;2022-10-16T00:19:09;15.90;99.90
1301;DHT22;59099;48.806;9.160;2022-10-16T00:21:35;16.00;99.90
1301;DHT22;59099;48.806;9.160;2022-10-16T00:24:04;15.80;99.90
1301;DHT22;59099;48.806;9.160;2022-10-16T00:26:31;15.80;99.90
1301;DHT22;59099;48.806;9.160;2022-10-16T00:28:57;15.70;99.90
1301;DHT22;59099;48.806;9.160;2022-10-16T00:31:24;15.70;99.90
1301;DHT22;59099;48.806;9.160;2022-10-16T00:33:50;15.70;99.90
1301;DHT22;59099;48.806;9.160;2022-10-16T00:36:19;15.70;99.90
1301;DHT22;59099;48.806;9.160;2022-10-16T00:38:45;15.60;99.90
1301;DHT22;59099;48.806;9.160;2022-10-16T00:41:14;15.50;99.90
1301;DHT22;59099;48.806;9.160;2022-10-16T00:43:53;15.40;99.90
1301;DHT22;59099;48.806;9.160;2022-10-16T00:46:26;15.50;99.90
1301;DHT22;59099;48.806;9.160;2022-10-16T00:49:14;15.40;99.90
1301;DHT22;59099;48.806;9.160;2022-10-16T00:51:46;15.40;99.90
1301;DHT22;59099;48.806;9.160;2022-10-16T00:54:25;15.40;99.90
1301;DHT22;59099;48.806;9.160;2022-10-16T00:56:53;15.30;99.90
1301;DHT22;59099;48.806;9.160;2022-10-16T00:59:24;15.30;99.90
1301;DHT22;59099;48.806;9.160;2022-10-16T01:01:51;15.20;99.90
1301;DHT22;59099;48.806;9.160;2022-10-16T01:04:18;15.20;99.90
1301;DHT22;59099;48.806;9.160;2022-10-16T01:13:07;15.00;99.90
1301;DHT22;59099;48.806;9.160;2022-10-16T01:15:56;14.90;99.90
1301;DHT22;59099;48.806;9.160;2022-10-16T01:18:32;14.90;99.90
1301;DHT22;59099;48.806;9.160;2022-10-16T01:21:05;15.00;99.90
1301;DHT22;59099;48.806;9.160;2022-10-16T01:28:57;15.10;99.90
1301;DHT22;59099;48.806;9.160;2022-10-16T01:31:31;15.10;99.90
1301;DHT22;59099;48.806;9.160;2022-10-16T01:36:52;15.10;99.90
1301;DHT22;59099;48.806;9.160;2022-10-16T01:39:24;15.20;99.90
1301;DHT22;59099;48.806;9.160;2022-10-16T01:42:07;15.30;99.90
1301;DHT22;59099;48.806;9.160;2022-10-16T01:44:35;15.30;99.90
1301;DHT22;59099;48.806;9.160;2022-10-16T01:47:04;15.40;99.90
1301;DHT22;59099;48.806;9.160;2022-10-16T01:49:34;15.40;99.90
1301;DHT22;59099;48.806;9.160;2022-10-16T01:52:04;15.40;99.90
1301;DHT22;59099;48.806;9.160;2022-10-16T01:54:32;15.40;99.90
1301;DHT22;59099;48.806;9.160;2022-10-16T01:56:59;15.40;99.90
1301;DHT22;59099;48.806;9.160;2022-10-16T01:59:26;15.40;99.90
1301;DHT22;59099;48.806;9.160;2022-10-16T02:02:00;15.50;99.90
1301;DHT22;59099;48.806;9.160;2022-10-16T02:04:33;15.50;99.90
1301;DHT22;59099;48.806;9.160;2022-10-16T02:07:00;15.50;99.90
1301;DHT22;59099;48.806;9.160;2022-10-16T02:14:47;15.60;99.90
1301;DHT22;59099;48.806;9.160;2022-10-16T02:17:17;15.50;99.90
1301;DHT22;59099;48.806;9.160;2022-10-16T02:19:45;15.50;99.90
1301;DHT22;59099;48.806;9.160;2022-10-16T02:22:39;15.50;99.90
1301;DHT22;59099;48.806;9.160;2022-10-16T02:25:29;15.40;99.90
1301;DHT22;59099;48.806;9.160;2022-10-16T02:28:22;15.40;99.90
1301;DHT22;59099;48.806;9.160;2022-10-16T02:31:01;15.20;99.90
1301;DHT22;59099;48.806;9.160;2022-10-16T02:33:29;15.30;99.90
1301;DHT22;59099;48.806;9.160;2022-10-16T02:35:57;15.20;99.90
1301;DHT22;59099;48.806;9.160;2022-10-16T02:38:23;15.20;99.90
1301;DHT22;59099;48.806;9.160;2022-10-16T02:40:50;15.20;99.90
1301;DHT22;59099;48.806;9.160;2022-10-16T02:43:16;15.20;99.90
1301;DHT22;59099;48.806;9.160;2022-10-16T02:45:42;15.20;99.90
1301;DHT22;59099;48.806;9.160;2022-10-16T02:48:08;15.20;99.90
1301;DHT22;59099;48.806;9.160;2022-10-16T02:50:34;15.20;99.90
1301;DHT22;59099;48.806;9.160;2022-10-16T02:52:59;15.20;99.90
1301;DHT22;59099;48.806;9.160;2022-10-16T02:55:25;15.20;99.90
1301;DHT22;59099;48.806;9.160;2022-10-16T02:57:53;15.20;99.90
1301;DHT22;59099;48.806;9.160;2022-10-16T03:00:19;15.20;99.90
1301;DHT22;59099;48.806;9.160;2022-10-16T03:05:27;15.20;99.90
1301;DHT22;59099;48.806;9.160;2022-10-16T03:07:53;15.30;99.90
1301;DHT22;59099;48.806;9.160;2022-10-16T03:10:19;15.20;99.90
1301;DHT22;59099;48.806;9.160;2022-10-16T03:12:45;15.30;99.90
1301;DHT22;59099;48.806;9.160;2022-10-16T03:15:10;15.30;99.90
1301;DHT22;59099;48.806;9.160;2022-10-16T03:17:36;15.30;99.90
1301;DHT22;59099;48.806;9.160;2022-10-16T03:20:02;15.20;99.90
1301;DHT22;59099;48.806;9.160;2022-10-16T03:22:29;15.20;99.90
1301;DHT22;59099;48.806;9.160;2022-10-16T03:24:55;15.20;99.90
1301;DHT22;59099;48.806;9.160;2022-10-16T03:27:20;15.20;99.90
1301;DHT22;59099;48.806;9.160;2022-10-16T03:29:46;15.20;99.90
1301;DHT22;59099;48.806;9.160;2022-10-16T03:32:12;15.20;99.90
1301;DHT22;59099;48.806;9.160;2022-10-16T03:34:37;15.30;99.90
1301;DHT22;59099;48.806;9.160;2022-10-16T03:37:04;15.30;99.90
1301;DHT22;59099;48.806;9.160;2022-10-16T03:39:30;15.30;99.90
1301;DHT22;59099;48.806;9.160;2022-10-16T03:41:59;15.30;99.90
1301;DHT22;59099;48.806;9.160;2022-10-16T03:44:25;15.40;99.90
1301;DHT22;59099;48.806;9.160;2022-10-16T03:46:50;15.40;99.90
1301;DHT22;59099;48.806;9.160;2022-10-16T03:49:16;15.30;99.90
1301;DHT22;59099;48.806;9.160;2022-10-16T03:51:42;15.30;99.90
1301;DHT22;59099;48.806;9.160;2022-10-16T03:54:09;15.20;99.90
1301;DHT22;59099;48.806;9.160;2022-10-16T03:56:34;15.20;99.90
1301;DHT22;59099;48.806;9.160;2022-10-16T03:59:01;15.10;99.90
1301;DHT22;59099;48.806;9.160;2022-10-16T04:01:27;15.00;99.90
1301;DHT22;59099;48.806;9.160;2022-10-16T04:03:59;15.20;99.90
1301;DHT22;59099;48.806;9.160;2022-10-16T04:06:24;15.20;99.90
1301;DHT22;59099;48.806;9.160;2022-10-16T04:08:50;15.20;99.90
1301;DHT22;59099;48.806;9.160;2022-10-16T04:11:16;15.10;99.90
1301;DHT22;59099;48.806;9.160;2022-10-16T04:13:41;15.00;99.90
1301;DHT22;59099;48.806;9.160;2022-10-16T04:16:08;15.00;99.90
1301;DHT22;59099;48.806;9.160;2022-10-16T04:18:34;15.00;99.90
1301;DHT22;59099;48.806;9.160;2022-10-16T04:21:05;15.00;99.90
1301;DHT22;59099;48.806;9.160;2022-10-16T04:23:31;14.90;99.90
1301;DHT22;59099;48.806;9.160;2022-10-16T04:25:57;14.90;99.90
1301;DHT22;59099;48.806;9.160;2022-10-16T04:33:27;14.90;99.90
1301;DHT22;59099;48.806;9.160;2022-10-16T04:38:35;15.10;99.90
1301;DHT22;59099;48.806;9.160;2022-10-16T04:41:03;15.10;99.90
1301;DHT22;59099;48.806;9.160;2022-10-16T04:43:29;15.00;99.90
1301;DHT22;59099;48.806;9.160;2022-10-16T04:45:55;14.90;99.90
1301;DHT22;59099;48.806;9.160;2022-10-16T04:48:24;15.00;99.90
1301;DHT22;59099;48.806;9.160;2022-10-16T04:50:50;15.00;99.90
1301;DHT22;59099;48.806;9.160;2022-10-16T04:53:16;15.00;99.90
1301;DHT22;59099;48.806;9.160;2022-10-16T04:55:41;15.00;99.90
1301;DHT22;59099;48.806;9.160;2022-10-16T04:58:10;15.10;99.90
1301;DHT22;59099;48.806;9.160;2022-10-16T05:00:39;15.00;99.90
1301;DHT22;59099;48.806;9.160;2022-10-16T05:03:04;15.00;99.90
1301;DHT22;59099;48.806;9.160;2022-10-16T05:05:33;14.90;99.90
1301;DHT22;59099;48.806;9.160;2022-10-16T05:07:59;14.90;99.90
1301;DHT22;59099;48.806;9.160;2022-10-16T05:10:25;14.90;99.90
1301;DHT22;59099;48.806;9.160;2022-10-16T05:12:51;14.80;99.90
1301;DHT22;59099;48.806;9.160;2022-10-16T05:15:17;14.90;99.90
1301;DHT22;59099;48.806;9.160;2022-10-16T05:17:44;14.90;99.90
1301;DHT22;59099;48.806;9.160;2022-10-16T05:20:10;14.80;99.90
1301;DHT22;59099;48.806;9.160;2022-10-16T05:22:36;14.90;99.90
1301;DHT22;59099;48.806;9.160;2022-10-16T05:25:02;14.90;99.90
1301;DHT22;59099;48.806;9.160;2022-10-16T05:27:28;14.90;99.90
1301;DHT22;59099;48.806;9.160;2022-10-16T05:29:54;14.90;99.90
1301;DHT22;59099;48.806;9.160;2022-10-16T05:32:19;14.90;99.90
1301;DHT22;59099;48.806;9.160;2022-10-16T05:34:45;15.00;99.90
1301;DHT22;59099;48.806;9.160;2022-10-16T05:37:12;14.90;99.90
1301;DHT22;59099;48.806;9.160;2022-10-16T05:39:40;14.90;99.90
1301;DHT22;59099;48.806;9.160;2022-10-16T05:42:07;14.90;99.90
1301;DHT22;59099;48.806;9.160;2022-10-16T05:44:34;14.80;99.90
1301;DHT22;59099;48.806;9.160;2022-10-16T05:46:59;14.80;99.90
1301;DHT22;59099;48.806;9.160;2022-10-16T05:49:28;14.80;99.90
1301;DHT22;59099;48.806;9.160;2022-10-16T05:51:54;14.80;99.90
1301;DHT22;59099;48.806;9.160;2022-10-16T05:54:20;14.70;99.90
1301;DHT22;59099;48.806;9.160;2022-10-16T05:56:45;14.70;99.90
1301;DHT22;59099;48.806;9.160;2022-10-16T05:59:11;14.70;99.90
1301;DHT22;59099;48.806;9.160;2022-10-16T06:01:37;14.80;99.90
1301;DHT22;59099;48.806;9.160;2022-10-16T06:04:03;14.80;99.90
1301;DHT22;59099;48.806;9.160;2022-10-16T06:06:29;14.80;99.90
1301;DHT22;59099;48.806;9.160;2022-10-16T06:08:56;14.80;99.90
1301;DHT22;59099;48.806;9.160;2022-10-16T06:11:25;15.00;99.90
1301;DHT22;59099;48.806;9.160;2022-10-16T06:13:56;15.00;99.90
1301;DHT22;59099;48.806;9.160;2022-10-16T06:16:26;15.00;99.90
1301;DHT22;59099;48.806;9.160;2022-10-16T06:18:53;14.90;99.90
1301;DHT22;59099;48.806;9.160;2022-10-16T06:21:21;15.00;99.90
1301;DHT22;59099;48.806;9.160;2022-10-16T06:23:48;14.90;99.90
1301;DHT22;59099;48.806;9.160;2022-10-16T06:26:17;14.80;99.90
1301;DHT22;59099;48.806;9.160;2022-10-16T06:28:43;14.90;99.90
1301;DHT22;59099;48.806;9.160;2022-10-16T06:31:10;14.90;99.90
1301;DHT22;59099;48.806;9.160;2022-10-16T06:33:37;14.90;99.90
1301;DHT22;59099;48.806;9.160;2022-10-16T06:36:06;15.00;99.90
1301;DHT22;59099;48.806;9.160;2022-10-16T06:38:32;15.00;99.90
1301;DHT22;59099;48.806;9.160;2022-10-16T06:40:58;15.00;99.90
1301;DHT22;59099;48.806;9.160;2022-10-16T06:43:31;15.10;99.90
1301;DHT22;59099;48.806;9.160;2022-10-16T06:46:04;15.20;99.90
1301;DHT22;59099;48.806;9.160;2022-10-16T06:48:31;15.20;99.90
1301;DHT22;59099;48.806;9.160;2022-10-16T06:51:04;15.40;99.90
1301;DHT22;59099;48.806;9.160;2022-10-16T06:53:39;15.40;99.90
1301;DHT22;59099;48.806;9.160;2022-10-16T06:56:17;15.40;99.90
1301;DHT22;59099;48.806;9.160;2022-10-16T06:58:49;15.30;99.90
1301;DHT22;59099;48.806;9.160;2022-10-16T07:01:16;15.40;99.90
1301;DHT22;59099;48.806;9.160;2022-10-16T07:03:44;15.50;99.90
1301;DHT22;59099;48.806;9.160;2022-10-16T07:06:12;15.50;99.90
1301;DHT22;59099;48.806;9.160;2022-10-16T07:08:39;15.60;99.90
1301;DHT22;59099;48.806;9.160;2022-10-16T07:11:14;15.70;99.90
1301;DHT22;59099;48.806;9.160;2022-10-16T07:13:41;15.80;99.90
1301;DHT22;59099;48.806;9.160;2022-10-16T07:16:08;16.00;99.90
1301;DHT22;59099;48.806;9.160;2022-10-16T07:18:35;16.10;99.90
1301;DHT22;59099;48.806;9.160;2022-10-16T07:21:10;16.20;99.90
1301;DHT22;59099;48.806;9.160;2022-10-16T07:23:37;16.20;99.90
1301;DHT22;59099;48.806;9.160;2022-10-16T07:26:04;16.20;99.90
1301;DHT22;59099;48.806;9.160;2022-10-16T07:28:30;16.30;99.90
1301;DHT22;59099;48.806;9.160;2022-10-16T07:31:05;16.30;99.90
1301;DHT22;59099;48.806;9.160;2022-10-16T07:33:38;16.40;99.90
1301;DHT22;59099;48.806;9.160;2022-10-16T07:36:04;16.40;99.90
1301;DHT22;59099;48.806;9.160;2022-10-16T07:38:30;16.40;99.90
1301;DHT22;59099;48.806;9.160;2022-10-16T07:40:58;16.30;99.90
1301;DHT22;59099;48.806;9.160;2022-10-16T07:43:24;16.20;99.90
1301;DHT22;59099;48.806;9.160;2022-10-16T07:45:50;16.20;99.90
1301;DHT22;59099;48.806;9.160;2022-10-16T07:48:17;16.30;99.90
1301;DHT22;59099;48.806;9.160;2022-10-16T07:50:44;16.40;99.90
1301;DHT22;59099;48.806;9.160;2022-10-16T07:53:10;16.50;99.90
1301;DHT22;59099;48.806;9.160;2022-10-16T07:55:37;16.50;99.90
1301;DHT22;59099;48.806;9.160;2022-10-16T07:58:04;16.60;99.90
1301;DHT22;59099;48.806;9.160;2022-10-16T08:00:30;16.70;99.90
1301;DHT22;59099;48.806;9.160;2022-10-16T08:02:59;16.90;99.90
1301;DHT22;59099;48.806;9.160;2022-10-16T08:05:27;17.00;99.90
1301;DHT22;59099;48.806;9.160;2022-10-16T08:07:53;17.10;99.90
1301;DHT22;59099;48.806;9.160;2022-10-16T08:10:21;17.30;99.90
1301;DHT22;59099;48.806;9.160;2022-10-16T08:12:46;17.40;99.90
1301;DHT22;59099;48.806;9.160;2022-10-16T08:15:12;17.60;99.90
1301;DHT22;59099;48.806;9.160;2022-10-16T08:17:38;17.90;99.90
1301;DHT22;59099;48.806;9.160;2022-10-16T08:20:05;18.10;99.90
1301;DHT22;59099;48.806;9.160;2022-10-16T08:22:31;18.30;99.90
1301;DHT22;59099;48.806;9.160;2022-10-16T08:24:57;18.50;99.90
1301;DHT22;59099;48.806;9.160;2022-10-16T08:27:23;18.80;99.90
1301;DHT22;59099;48.806;9.160;2022-10-16T08:29:49;19.10;99.90
1301;DHT22;59099;48.806;9.160;2022-10-16T08:32:17;19.30;99.90
1301;DHT22;59099;48.806;9.160;2022-10-16T08:34:46;19.30;99.90
1301;DHT22;59099;48.806;9.160;2022-10-16T08:37:13;19.40;99.90
1301;DHT22;59099;48.806;9.160;2022-10-16T08:39:40;19.50;99.90
1301;DHT22;59099;48.806;9.160;2022-10-16T08:45:19;19.60;99.90
1301;DHT22;59099;48.806;9.160;2022-10-16T08:50:27;19.60;99.90
1301;DHT22;59099;48.806;9.160;2022-10-16T08:52:54;19.60;99.90
1301;DHT22;59099;48.806;9.160;2022-10-16T08:58:15;19.60;99.90
1301;DHT22;59099;48.806;9.160;2022-10-16T09:00:43;19.60;99.90
1301;DHT22;59099;48.806;9.160;2022-10-16T09:03:18;19.60;99.90
1301;DHT22;59099;48.806;9.160;2022-10-16T09:06:15;19.70;99.90
1301;DHT22;59099;48.806;9.160;2022-10-16T09:14:58;20.00;99.90
1301;DHT22;59099;48.806;9.160;2022-10-16T09:17:41;20.10;99.90
1301;DHT22;59099;48.806;9.160;2022-10-16T09:23:22;20.40;99.90
1301;DHT22;59099;48.806;9.160;2022-10-16T09:25:51;20.50;99.90
1301;DHT22;59099;48.806;9.160;2022-10-16T09:28:18;20.40;99.90
1301;DHT22;59099;48.806;9.160;2022-10-16T09:30:44;20.30;99.90
1301;DHT22;59099;48.806;9.160;2022-10-16T09:33:12;20.40;99.90
1301;DHT22;59099;48.806;9.160;2022-10-16T09:35:45;20.40;99.90
1301;DHT22;59099;48.806;9.160;2022-10-16T09:40:57;20.60;99.90
1301;DHT22;59099;48.806;9.160;2022-10-16T09:46:03;20.70;99.90
1301;DHT22;59099;48.806;9.160;2022-10-16T09:48:38;20.70;99.90
1301;DHT22;59099;48.806;9.160;2022-10-16T09:51:13;20.70;99.90
1301;DHT22;59099;48.806;9.160;2022-10-16T09:53:44;20.80;99.90
1301;DHT22;59099;48.806;9.160;2022-10-16T09:56:12;21.00;99.90
1301;DHT22;59099;48.806;9.160;2022-10-16T09:58:53;21.40;99.90
1301;DHT22;59099;48.806;9.160;2022-10-16T10:01:21;22.50;99.90
1301;DHT22;59099;48.806;9.160;2022-10-16T10:03:48;22.70;99.90
1301;DHT22;59099;48.806;9.160;2022-10-16T10:06:27;22.60;99.90
1301;DHT22;59099;48.806;9.160;2022-10-16T10:11:42;23.10;99.90
1301;DHT22;59099;48.806;9.160;2022-10-16T10:14:34;23.20;99.90
1301;DHT22;59099;48.806;9.160;2022-10-16T10:17:19;23.30;99.90
1301;DHT22;59099;48.806;9.160;2022-10-16T10:22:42;23.60;99.90
1301;DHT22;59099;48.806;9.160;2022-10-16T10:30:43;24.00;99.90
1301;DHT22;59099;48.806;9.160;2022-10-16T10:33:26;24.40;99.90
1301;DHT22;59099;48.806;9.160;2022-10-16T10:36:27;24.80;99.90
1301;DHT22;59099;48.806;9.160;2022-10-16T10:39:04;25.30;99.90
1301;DHT22;59099;48.806;9.160;2022-10-16T10:55:30;26.70;99.90
1301;DHT22;59099;48.806;9.160;2022-10-16T11:06:05;28.30;99.90
1301;DHT22;59099;48.806;9.160;2022-10-16T11:11:38;28.60;99.90
1301;DHT22;59099;48.806;9.160;2022-10-16T11:14:23;29.40;99.90
1301;DHT22;59099;48.806;9.160;2022-10-16T11:17:29;29.70;99.90
1301;DHT22;59099;48.806;9.160;2022-10-16T11:20:31;30.00;99.90
1301;DHT22;59099;48.806;9.160;2022-10-16T11:25:33;30.90;99.90
1301;DHT22;59099;48.806;9.160;2022-10-16T11:28:23;31.60;99.90
1301;DHT22;59099;48.806;9.160;2022-10-16T11:31:11;31.90;99.90
1301;DHT22;59099;48.806;9.160;2022-10-16T11:39:33;30.60;98.10
1301;DHT22;59099;48.806;9.160;2022-10-16T11:42:09;30.80;97.10
1301;DHT22;59099;48.806;9.160;2022-10-16T11:50:50;32.70;92.50
1301;DHT22;59099;48.806;9.160;2022-10-16T11:56:15;34.00;90.10
1301;DHT22;59099;48.806;9.160;2022-10-16T11:58:52;34.80;84.80
1301;DHT22;59099;48.806;9.160;2022-10-16T12:02:03;36.00;81.50
1301;DHT22;59099;48.806;9.160;2022-10-16T12:04:43;36.70;74.20
1301;DHT22;59099;48.806;9.160;2022-10-16T12:07:39;37.00;72.90
1301;DHT22;59099;48.806;9.160;2022-10-16T12:10:18;36.80;69.20
1301;DHT22;59099;48.806;9.160;2022-10-16T12:12:45;35.90;71.00
1301;DHT22;59099;48.806;9.160;2022-10-16T12:15:25;35.10;75.90
1301;DHT22;59099;48.806;9.160;2022-10-16T12:17:52;34.60;76.70
1301;DHT22;59099;48.806;9.160;2022-10-16T12:20:31;33.70;76.40
1301;DHT22;59099;48.806;9.160;2022-10-16T12:23:02;32.70;82.80
1301;DHT22;59099;48.806;9.160;2022-10-16T12:25:37;31.60;78.10
1301;DHT22;59099;48.806;9.160;2022-10-16T12:28:31;31.00;80.60
1301;DHT22;59099;48.806;9.160;2022-10-16T12:33:33;30.50;83.30
1301;DHT22;59099;48.806;9.160;2022-10-16T12:36:01;30.40;83.30
1301;DHT22;59099;48.806;9.160;2022-10-16T12:38:35;30.20;87.80
1301;DHT22;59099;48.806;9.160;2022-10-16T12:41:05;30.20;89.60
1301;DHT22;59099;48.806;9.160;2022-10-16T12:43:46;30.20;90.60
1301;DHT22;59099;48.806;9.160;2022-10-16T12:48:43;30.00;89.20
1301;DHT22;59099;48.806;9.160;2022-10-16T12:54:03;29.60;92.50
1301;DHT22;59099;48.806;9.160;2022-10-16T13:10:28;29.10;93.30
1301;DHT22;59099;48.806;9.160;2022-10-16T13:13:18;28.90;93.90
1301;DHT22;59099;48.806;9.160;2022-10-16T13:21:38;29.00;96.40
1301;DHT22;59099;48.806;9.160;2022-10-16T13:24:23;29.00;95.90
1301;DHT22;59099;48.806;9.160;2022-10-16T13:27:07;28.90;96.40
1301;DHT22;59099;48.806;9.160;2022-10-16T13:29:35;28.70;96.90
1301;DHT22;59099;48.806;9.160;2022-10-16T13:32:10;28.60;96.20
1301;DHT22;59099;48.806;9.160;2022-10-16T13:34:47;28.60;97.40
1301;DHT22;59099;48.806;9.160;2022-10-16T13:37:20;28.30;97.20
1301;DHT22;59099;48.806;9.160;2022-10-16T13:39:47;28.00;98.50
1301;DHT22;59099;48.806;9.160;2022-10-16T13:42:28;27.90;99.90
1301;DHT22;59099;48.806;9.160;2022-10-16T13:44:56;27.80;99.90
1301;DHT22;59099;48.806;9.160;2022-10-16T13:47:27;27.60;99.90
1301;DHT22;59099;48.806;9.160;2022-10-16T13:50:19;27.70;99.90
1301;DHT22;59099;48.806;9.160;2022-10-16T13:52:45;27.60;99.90
1301;DHT22;59099;48.806;9.160;2022-10-16T13:55:16;27.70;99.90
1301;DHT22;59099;48.806;9.160;2022-10-16T13:57:43;27.90;99.90
1301;DHT22;59099;48.806;9.160;2022-10-16T14:00:24;28.10;99.90
1301;DHT22;59099;48.806;9.160;2022-10-16T14:02:55;28.20;99.90
1301;DHT22;59099;48.806;9.160;2022-10-16T14:05:23;27.90;99.90
1301;DHT22;59099;48.806;9.160;2022-10-16T14:07:50;27.70;99.90
1301;DHT22;59099;48.806;9.160;2022-10-16T14:10:34;27.50;99.90
1301;DHT22;59099;48.806;9.160;2022-10-16T14:13:05;27.30;99.90
1301;DHT22;59099;48.806;9.160;2022-10-16T14:16:15;27.20;99.90
1301;DHT22;59099;48.806;9.160;2022-10-16T14:18:46;27.10;99.90
1301;DHT22;59099;48.806;9.160;2022-10-16T14:21:16;26.80;99.90
1301;DHT22;59099;48.806;9.160;2022-10-16T14:23:43;26.60;99.90
1301;DHT22;59099;48.806;9.160;2022-10-16T14:28:36;26.10;99.90
1301;DHT22;59099;48.806;9.160;2022-10-16T14:31:26;25.90;99.90
1301;DHT22;59099;48.806;9.160;2022-10-16T14:33:53;25.80;99.90
1301;DHT22;59099;48.806;9.160;2022-10-16T14:36:19;25.70;99.90
1301;DHT22;59099;48.806;9.160;2022-10-16T14:38:58;25.70;99.90
1301;DHT22;59099;48.806;9.160;2022-10-16T14:41:26;25.40;99.90
1301;DHT22;59099;48.806;9.160;2022-10-16T14:44:00;25.30;99.90
1301;DHT22;59099;48.806;9.160;2022-10-16T14:46:34;25.20;99.90
1301;DHT22;59099;48.806;9.160;2022-10-16T14:49:04;25.20;99.90
1301;DHT22;59099;48.806;9.160;2022-10-16T14:51:37;25.30;99.90
1301;DHT22;59099;48.806;9.160;2022-10-16T14:54:04;25.40;99.90
1301;DHT22;59099;48.806;9.160;2022-10-16T14:56:34;25.40;99.90
1301;DHT22;59099;48.806;9.160;2022-10-16T14:59:01;25.40;99.90
1301;DHT22;59099;48.806;9.160;2022-10-16T15:01:29;25.30;99.90
1301;DHT22;59099;48.806;9.160;2022-10-16T15:03:55;25.30;99.90
1301;DHT22;59099;48.806;9.160;2022-10-16T15:06:21;25.40;99.90
1301;DHT22;59099;48.806;9.160;2022-10-16T15:08:47;25.50;99.90
1301;DHT22;59099;48.806;9.160;2022-10-16T15:11:16;25.50;99.90
1301;DHT22;59099;48.806;9.160;2022-10-16T15:13:42;25.60;99.90
1301;DHT22;59099;48.806;9.160;2022-10-16T15:16:12;25.70;99.90
1301;DHT22;59099;48.806;9.160;2022-10-16T15:18:38;26.20;99.90
1301;DHT22;59099;48.806;9.160;2022-10-16T15:21:04;26.90;99.90
1301;DHT22;59099;48.806;9.160;2022-10-16T15:23:30;27.10;99.90
1301;DHT22;59099;48.806;9.160;2022-10-16T15:26:02;27.20;99.90
1301;DHT22;59099;48.806;9.160;2022-10-16T15:28:28;26.90;99.90
1301;DHT22;59099;48.806;9.160;2022-10-16T15:30:56;26.70;99.90
1301;DHT22;59099;48.806;9.160;2022-10-16T15:33:26;26.40;99.90
1301;DHT22;59099;48.806;9.160;2022-10-16T15:35:58;26.10;99.90
1301;DHT22;59099;48.806;9.160;2022-10-16T15:38:26;25.90;99.90
1301;DHT22;59099;48.806;9.160;2022-10-16T15:40:53;25.80;99.90
1301;DHT22;59099;48.806;9.160;2022-10-16T15:43:19;25.60;99.90
1301;DHT22;59099;48.806;9.160;2022-10-16T15:46:03;25.40;99.90
1301;DHT22;59099;48.806;9.160;2022-10-16T15:48:31;25.20;99.90
1301;DHT22;59099;48.806;9.160;2022-10-16T15:50:57;25.00;99.90
1301;DHT22;59099;48.806;9.160;2022-10-16T15:53:23;24.90;99.90
1301;DHT22;59099;48.806;9.160;2022-10-16T15:55:50;24.80;99.90
1301;DHT22;59099;48.806;9.160;2022-10-16T15:58:17;24.20;99.90
1301;DHT22;59099;48.806;9.160;2022-10-16T16:00:44;23.70;99.90
1301;DHT22;59099;48.806;9.160;2022-10-16T16:03:10;23.40;99.90
1301;DHT22;59099;48.806;9.160;2022-10-16T16:05:40;23.10;99.90
1301;DHT22;59099;48.806;9.160;2022-10-16T16:08:12;22.90;99.90
1301;DHT22;59099;48.806;9.160;2022-10-16T16:11:17;22.80;99.90
1301;DHT22;59099;48.806;9.160;2022-10-16T16:13:53;22.40;99.90
1301;DHT22;59099;48.806;9.160;2022-10-16T16:16:31;22.10;99.90
1301;DHT22;59099;48.806;9.160;2022-10-16T16:19:16;21.80;99.90
1301;DHT22;59099;48.806;9.160;2022-10-16T16:21:52;21.60;99.90
1301;DHT22;59099;48.806;9.160;2022-10-16T16:24:26;21.40;99.90
1301;DHT22;59099;48.806;9.160;2022-10-16T16:30:13;20.80;99.90
1301;DHT22;59099;48.806;9.160;2022-10-16T16:32:47;20.60;99.90
1301;DHT22;59099;48.806;9.160;2022-10-16T16:35:27;20.40;99.90
1301;DHT22;59099;48.806;9.160;2022-10-16T16:37:54;20.20;99.90
1301;DHT22;59099;48.806;9.160;2022-10-16T16:40:31;20.00;99.90
1301;DHT22;59099;48.806;9.160;2022-10-16T16:43:19;19.90;99.90
1301;DHT22;59099;48.806;9.160;2022-10-16T16:46:11;19.80;99.90
1301;DHT22;59099;48.806;9.160;2022-10-16T16:49:01;19.80;99.90
1301;DHT22;59099;48.806;9.160;2022-10-16T16:52:03;19.70;99.90
1301;DHT22;59099;48.806;9.160;2022-10-16T16:54:54;19.60;99.90
1301;DHT22;59099;48.806;9.160;2022-10-16T16:57:20;19.60;99.90
1301;DHT22;59099;48.806;9.160;2022-10-16T16:59:46;19.50;99.90
1301;DHT22;59099;48.806;9.160;2022-10-16T17:02:13;19.20;99.90
1301;DHT22;59099;48.806;9.160;2022-10-16T17:04:39;19.10;99.90
1301;DHT22;59099;48.806;9.160;2022-10-16T17:07:04;19.00;99.90
1301;DHT22;59099;48.806;9.160;2022-10-16T17:09:32;19.00;99.90
1301;DHT22;59099;48.806;9.160;2022-10-16T17:11:59;19.00;99.90
1301;DHT22;59099;48.806;9.160;2022-10-16T17:14:25;18.90;99.90
1301;DHT22;59099;48.806;9.160;2022-10-16T17:16:52;18.80;99.90
1301;DHT22;59099;48.806;9.160;2022-10-16T17:19:23;18.70;99.90
1301;DHT22;59099;48.806;9.160;2022-10-16T17:21:52;18.70;99.90
1301;DHT22;59099;48.806;9.160;2022-10-16T17:24:18;18.80;99.90
1301;DHT22;59099;48.806;9.160;2022-10-16T17:26:45;18.60;99.90
1301;DHT22;59099;48.806;9.160;2022-10-16T17:29:14;18.60;99.90
1301;DHT22;59099;48.806;9.160;2022-10-16T17:31:40;18.50;99.90
1301;DHT22;59099;48.806;9.160;2022-10-16T17:34:08;18.40;99.90
1301;DHT22;59099;48.806;9.160;2022-10-16T17:36:36;18.20;99.90
1301;DHT22;59099;48.806;9.160;2022-10-16T17:39:06;18.20;99.90
1301;DHT22;59099;48.806;9.160;2022-10-16T17:41:32;18.20;99.90
1301;DHT22;59099;48.806;9.160;2022-10-16T17:43:59;18.20;99.90
1301;DHT22;59099;48.806;9.160;2022-10-16T17:46:25;18.10;99.90
1301;DHT22;59099;48.806;9.160;2022-10-16T17:48:53;17.90;99.90
1301;DHT22;59099;48.806;9.160;2022-10-16T17:51:26;17.90;99.90
1301;DHT22;59099;48.806;9.160;2022-10-16T17:53:54;17.90;99.90
1301;DHT22;59099;48.806;9.160;2022-10-16T17:56:26;17.80;99.90
1301;DHT22;59099;48.806;9.160;2022-10-16T17:58:55;17.80;99.90
1301;DHT22;59099;48.806;9.160;2022-10-16T18:01:24;17.60;99.90
1301;DHT22;59099;48.806;9.160;2022-10-16T18:03:52;17.60;99.90
1301;DHT22;59099;48.806;9.160;2022-10-16T18:06:18;17.50;99.90
1301;DHT22;59099;48.806;9.160;2022-10-16T18:08:44;17.50;99.90
1301;DHT22;59099;48.806;9.160;2022-10-16T18:11:11;17.50;99.90
1301;DHT22;59099;48.806;9.160;2022-10-16T18:13:37;17.50;99.90
1301;DHT22;59099;48.806;9.160;2022-10-16T18:16:05;17.40;99.90
1301;DHT22;59099;48.806;9.160;2022-10-16T18:18:35;17.40;99.90
1301;DHT22;59099;48.806;9.160;2022-10-16T18:21:03;17.20;99.90
1301;DHT22;59099;48.806;9.160;2022-10-16T18:23:44;17.10;99.90
1301;DHT22;59099;48.806;9.160;2022-10-16T18:26:11;17.10;99.90
1301;DHT22;59099;48.806;9.160;2022-10-16T18:28:40;17.10;99.90